sensor_id;sensor_type;location;lat;lon;timestamp;P1;durP1;ratioP1;P2;durP2;ratioP2
52620;SDS011;38515;53.160;6.990;2023-02-18T00:00:11;8.35;;;5.25;;
52620;SDS011;38515;53.160;6.990;2023-02-18T00:02:39;14.63;;;6.22;;
52620;SDS011;38515;53.160;6.990;2023-02-18T00:05:05;16.10;;;5.25;;
52620;SDS011;38515;53.160;6.990;2023-02-18T00:07:35;15.40;;;6.07;;
52620;SDS011;38515;53.160;6.990;2023-02-18T00:10:03;9.23;;;5.55;;
52620;SDS011;38515;53.160;6.990;2023-02-18T00:12:30;17.95;;;5.85;;
52620;SDS011;38515;53.160;6.990;2023-02-18T00:14:56;6.43;;;5.55;;
52620;SDS011;38515;53.160;6.990;2023-02-18T00:17:23;8.23;;;5.22;;
52620;SDS011;38515;53.160;6.990;2023-02-18T00:19:49;21.55;;;4.40;;
52620;SDS011;38515;53.160;6.990;2023-02-18T00:22:15;14.98;;;6.20;;
52620;SDS011;38515;53.160;6.990;2023-02-18T00:24:41;8.48;;;5.78;;
52620;SDS011;38515;53.160;6.990;2023-02-18T00:27:07;21.25;;;6.20;;
52620;SDS011;38515;53.160;6.990;2023-02-18T00:29:33;11.13;;;5.18;;
52620;SDS011;38515;53.160;6.990;2023-02-18T00:31:59;14.45;;;5.28;;
52620;SDS011;38515;53.160;6.990;2023-02-18T00:34:25;15.50;;;6.03;;
52620;SDS011;38515;53.160;6.990;2023-02-18T00:36:51;21.00;;;7.13;;
52620;SDS011;38515;53.160;6.990;2023-02-18T00:39:17;8.77;;;4.70;;
52620;SDS011;38515;53.160;6.990;2023-02-18T00:41:43;13.95;;;4.97;;
52620;SDS011;38515;53.160;6.990;2023-02-18T00:44:09;11.13;;;4.72;;
52620;SDS011;38515;53.160;6.990;2023-02-18T00:46:37;8.20;;;7.28;;
52620;SDS011;38515;53.160;6.990;2023-02-18T00:49:03;12.13;;;7.28;;
52620;SDS011;38515;53.160;6.990;2023-02-18T00:51:30;7.45;;;6.65;;
52620;SDS011;38515;53.160;6.990;2023-02-18T00:53:56;12.07;;;10.35;;
52620;SDS011;38515;53.160;6.990;2023-02-18T00:56:22;10.95;;;9.82;;
52620;SDS011;38515;53.160;6.990;2023-02-18T00:58:48;10.80;;;10.18;;
52620;SDS011;38515;53.160;6.990;2023-02-18T01:01:15;14.18;;;13.02;;
52620;SDS011;38515;53.160;6.990;2023-02-18T01:03:41;14.98;;;11.55;;
52620;SDS011;38515;53.160;6.990;2023-02-18T01:06:07;14.85;;;13.45;;
52620;SDS011;38515;53.160;6.990;2023-02-18T01:08:34;12.35;;;5.40;;
52620;SDS011;38515;53.160;6.990;2023-02-18T01:11:01;7.28;;;6.63;;
52620;SDS011;38515;53.160;6.990;2023-02-18T01:13:27;7.70;;;7.18;;
52620;SDS011;38515;53.160;6.990;2023-02-18T01:15:54;11.05;;;7.95;;
52620;SDS011;38515;53.160;6.990;2023-02-18T01:18:20;16.50;;;5.13;;
52620;SDS011;38515;53.160;6.990;2023-02-18T01:20:46;7.43;;;6.63;;
52620;SDS011;38515;53.160;6.990;2023-02-18T01:23:13;12.85;;;4.97;;
52620;SDS011;38515;53.160;6.990;2023-02-18T01:25:39;18.75;;;6.20;;
52620;SDS011;38515;53.160;6.990;2023-02-18T01:28:06;24.23;;;5.70;;
52620;SDS011;38515;53.160;6.990;2023-02-18T01:30:33;15.48;;;5.10;;
52620;SDS011;38515;53.160;6.990;2023-02-18T01:32:59;8.75;;;5.18;;
52620;SDS011;38515;53.160;6.990;2023-02-18T01:35:25;9.90;;;5.68;;
52620;SDS011;38515;53.160;6.990;2023-02-18T01:37:51;16.05;;;6.30;;
52620;SDS011;38515;53.160;6.990;2023-02-18T01:40:19;8.38;;;7.68;;
52620;SDS011;38515;53.160;6.990;2023-02-18T01:42:48;12.07;;;5.65;;
52620;SDS011;38515;53.160;6.990;2023-02-18T01:48:20;14.98;;;8.52;;
52620;SDS011;38515;53.160;6.990;2023-02-18T01:50:48;24.02;;;8.45;;
52620;SDS011;38515;53.160;6.990;2023-02-18T01:53:17;23.35;;;8.63;;
52620;SDS011;38515;53.160;6.990;2023-02-18T01:55:47;14.48;;;5.97;;
52620;SDS011;38515;53.160;6.990;2023-02-18T01:58:14;17.70;;;5.80;;
52620;SDS011;38515;53.160;6.990;2023-02-18T02:00:40;8.63;;;4.65;;
52620;SDS011;38515;53.160;6.990;2023-02-18T02:03:06;14.85;;;5.60;;
52620;SDS011;38515;53.160;6.990;2023-02-18T02:05:33;13.35;;;5.80;;
52620;SDS011;38515;53.160;6.990;2023-02-18T02:07:59;8.45;;;5.07;;
52620;SDS011;38515;53.160;6.990;2023-02-18T02:10:34;18.05;;;4.68;;
52620;SDS011;38515;53.160;6.990;2023-02-18T02:16:05;4.20;;;3.90;;
52620;SDS011;38515;53.160;6.990;2023-02-18T02:34:35;12.48;;;5.53;;
52620;SDS011;38515;53.160;6.990;2023-02-18T02:40:14;6.63;;;5.43;;
52620;SDS011;38515;53.160;6.990;2023-02-18T02:42:46;18.50;;;5.75;;
52620;SDS011;38515;53.160;6.990;2023-02-18T02:53:48;5.72;;;5.38;;
52620;SDS011;38515;53.160;6.990;2023-02-18T02:56:15;17.55;;;6.75;;
52620;SDS011;38515;53.160;6.990;2023-02-18T02:58:43;7.78;;;5.13;;
52620;SDS011;38515;53.160;6.990;2023-02-18T03:06:56;9.88;;;6.55;;
52620;SDS011;38515;53.160;6.990;2023-02-18T03:12:52;15.73;;;6.82;;
52620;SDS011;38515;53.160;6.990;2023-02-18T03:21:28;17.40;;;7.18;;
52620;SDS011;38515;53.160;6.990;2023-02-18T03:26:39;19.25;;;7.20;;
52620;SDS011;38515;53.160;6.990;2023-02-18T03:29:09;16.45;;;9.90;;
52620;SDS011;38515;53.160;6.990;2023-02-18T03:31:37;9.02;;;8.23;;
52620;SDS011;38515;53.160;6.990;2023-02-18T03:34:12;12.90;;;9.05;;
52620;SDS011;38515;53.160;6.990;2023-02-18T03:36:41;18.17;;;8.23;;
52620;SDS011;38515;53.160;6.990;2023-02-18T03:39:08;23.83;;;9.32;;
52620;SDS011;38515;53.160;6.990;2023-02-18T03:41:38;10.07;;;9.05;;
52620;SDS011;38515;53.160;6.990;2023-02-18T03:44:05;9.10;;;8.32;;
52620;SDS011;38515;53.160;6.990;2023-02-18T03:46:32;17.10;;;9.88;;
52620;SDS011;38515;53.160;6.990;2023-02-18T03:48:59;22.75;;;10.32;;
52620;SDS011;38515;53.160;6.990;2023-02-18T03:51:25;19.95;;;14.27;;
52620;SDS011;38515;53.160;6.990;2023-02-18T03:53:52;23.58;;;9.00;;
52620;SDS011;38515;53.160;6.990;2023-02-18T03:56:18;16.48;;;10.02;;
52620;SDS011;38515;53.160;6.990;2023-02-18T03:58:44;16.50;;;10.25;;
52620;SDS011;38515;53.160;6.990;2023-02-18T04:01:10;22.73;;;10.45;;
52620;SDS011;38515;53.160;6.990;2023-02-18T04:03:37;51.08;;;48.20;;
52620;SDS011;38515;53.160;6.990;2023-02-18T04:06:02;23.33;;;11.50;;
52620;SDS011;38515;53.160;6.990;2023-02-18T04:08:29;24.52;;;14.00;;
52620;SDS011;38515;53.160;6.990;2023-02-18T04:10:55;24.25;;;12.85;;
52620;SDS011;38515;53.160;6.990;2023-02-18T04:13:20;21.42;;;12.30;;
52620;SDS011;38515;53.160;6.990;2023-02-18T04:15:50;24.58;;;14.20;;
52620;SDS011;38515;53.160;6.990;2023-02-18T04:18:16;22.13;;;12.77;;
52620;SDS011;38515;53.160;6.990;2023-02-18T04:20:43;28.55;;;24.30;;
52620;SDS011;38515;53.160;6.990;2023-02-18T04:23:10;22.63;;;20.52;;
52620;SDS011;38515;53.160;6.990;2023-02-18T04:25:37;22.75;;;15.10;;
52620;SDS011;38515;53.160;6.990;2023-02-18T04:28:03;25.55;;;14.15;;
52620;SDS011;38515;53.160;6.990;2023-02-18T04:30:29;21.33;;;12.43;;
52620;SDS011;38515;53.160;6.990;2023-02-18T04:32:55;24.42;;;14.32;;
52620;SDS011;38515;53.160;6.990;2023-02-18T04:35:21;24.10;;;15.23;;
52620;SDS011;38515;53.160;6.990;2023-02-18T04:37:46;40.97;;;38.13;;
52620;SDS011;38515;53.160;6.990;2023-02-18T04:40:13;44.13;;;41.30;;
52620;SDS011;38515;53.160;6.990;2023-02-18T04:42:39;29.23;;;16.38;;
52620;SDS011;38515;53.160;6.990;2023-02-18T04:45:05;39.88;;;36.03;;
52620;SDS011;38515;53.160;6.990;2023-02-18T04:47:31;28.10;;;16.52;;
52620;SDS011;38515;53.160;6.990;2023-02-18T04:49:58;38.10;;;35.70;;
52620;SDS011;38515;53.160;6.990;2023-02-18T04:52:23;27.17;;;17.23;;
52620;SDS011;38515;53.160;6.990;2023-02-18T04:54:50;27.60;;;18.13;;
52620;SDS011;38515;53.160;6.990;2023-02-18T04:57:15;77.47;;;72.70;;
52620;SDS011;38515;53.160;6.990;2023-02-18T04:59:41;70.60;;;67.07;;
52620;SDS011;38515;53.160;6.990;2023-02-18T05:02:07;37.70;;;23.85;;
52620;SDS011;38515;53.160;6.990;2023-02-18T05:04:33;35.65;;;20.00;;
52620;SDS011;38515;53.160;6.990;2023-02-18T05:06:59;31.55;;;18.50;;
52620;SDS011;38515;53.160;6.990;2023-02-18T05:09:25;53.95;;;29.70;;
52620;SDS011;38515;53.160;6.990;2023-02-18T05:11:51;37.90;;;24.23;;
52620;SDS011;38515;53.160;6.990;2023-02-18T05:14:17;41.42;;;25.65;;
52620;SDS011;38515;53.160;6.990;2023-02-18T05:16:43;38.78;;;23.38;;
52620;SDS011;38515;53.160;6.990;2023-02-18T05:19:09;44.25;;;27.85;;
52620;SDS011;38515;53.160;6.990;2023-02-18T05:21:41;48.35;;;27.67;;
52620;SDS011;38515;53.160;6.990;2023-02-18T05:24:07;55.95;;;32.38;;
52620;SDS011;38515;53.160;6.990;2023-02-18T05:26:34;132.52;;;124.88;;
52620;SDS011;38515;53.160;6.990;2023-02-18T05:28:59;81.03;;;38.63;;
52620;SDS011;38515;53.160;6.990;2023-02-18T05:31:25;50.30;;;29.40;;
52620;SDS011;38515;53.160;6.990;2023-02-18T05:33:51;196.90;;;185.98;;
52620;SDS011;38515;53.160;6.990;2023-02-18T05:36:17;69.25;;;39.88;;
52620;SDS011;38515;53.160;6.990;2023-02-18T05:38:43;58.45;;;31.20;;
52620;SDS011;38515;53.160;6.990;2023-02-18T05:41:09;62.25;;;36.42;;
52620;SDS011;38515;53.160;6.990;2023-02-18T05:43:34;59.10;;;36.80;;
52620;SDS011;38515;53.160;6.990;2023-02-18T05:46:20;67.35;;;38.95;;
52620;SDS011;38515;53.160;6.990;2023-02-18T05:48:46;180.95;;;171.45;;
52620;SDS011;38515;53.160;6.990;2023-02-18T05:51:12;72.05;;;39.40;;
52620;SDS011;38515;53.160;6.990;2023-02-18T05:53:38;83.45;;;47.50;;
52620;SDS011;38515;53.160;6.990;2023-02-18T05:56:04;68.13;;;42.20;;
52620;SDS011;38515;53.160;6.990;2023-02-18T05:58:30;73.20;;;44.70;;
52620;SDS011;38515;53.160;6.990;2023-02-18T06:00:56;74.00;;;45.30;;
52620;SDS011;38515;53.160;6.990;2023-02-18T06:03:22;79.50;;;45.60;;
52620;SDS011;38515;53.160;6.990;2023-02-18T06:05:49;85.82;;;48.30;;
52620;SDS011;38515;53.160;6.990;2023-02-18T06:08:15;83.30;;;46.22;;
52620;SDS011;38515;53.160;6.990;2023-02-18T06:10:41;68.57;;;43.13;;
52620;SDS011;38515;53.160;6.990;2023-02-18T06:13:07;90.05;;;48.22;;
52620;SDS011;38515;53.160;6.990;2023-02-18T06:15:33;74.82;;;43.88;;
52620;SDS011;38515;53.160;6.990;2023-02-18T06:17:59;74.18;;;43.97;;
52620;SDS011;38515;53.160;6.990;2023-02-18T06:20:25;70.78;;;45.13;;
52620;SDS011;38515;53.160;6.990;2023-02-18T06:22:50;69.57;;;41.85;;
52620;SDS011;38515;53.160;6.990;2023-02-18T06:25:16;72.63;;;42.35;;
52620;SDS011;38515;53.160;6.990;2023-02-18T06:27:42;66.40;;;42.17;;
52620;SDS011;38515;53.160;6.990;2023-02-18T06:30:08;68.68;;;39.15;;
52620;SDS011;38515;53.160;6.990;2023-02-18T06:32:34;66.07;;;38.47;;
52620;SDS011;38515;53.160;6.990;2023-02-18T06:35:00;64.65;;;39.97;;
52620;SDS011;38515;53.160;6.990;2023-02-18T06:37:26;59.28;;;32.30;;
52620;SDS011;38515;53.160;6.990;2023-02-18T06:39:52;59.58;;;33.75;;
52620;SDS011;38515;53.160;6.990;2023-02-18T06:42:18;57.40;;;30.80;;
52620;SDS011;38515;53.160;6.990;2023-02-18T06:44:44;48.53;;;27.60;;
52620;SDS011;38515;53.160;6.990;2023-02-18T06:47:10;44.38;;;26.70;;
52620;SDS011;38515;53.160;6.990;2023-02-18T06:49:36;38.90;;;25.23;;
52620;SDS011;38515;53.160;6.990;2023-02-18T06:52:03;42.30;;;23.90;;
52620;SDS011;38515;53.160;6.990;2023-02-18T06:54:29;35.40;;;22.38;;
52620;SDS011;38515;53.160;6.990;2023-02-18T06:56:55;25.65;;;18.85;;
52620;SDS011;38515;53.160;6.990;2023-02-18T06:59:21;36.10;;;22.23;;
52620;SDS011;38515;53.160;6.990;2023-02-18T07:01:47;35.88;;;21.83;;
52620;SDS011;38515;53.160;6.990;2023-02-18T07:04:13;35.17;;;21.65;;
52620;SDS011;38515;53.160;6.990;2023-02-18T07:06:39;36.90;;;21.75;;
52620;SDS011;38515;53.160;6.990;2023-02-18T07:09:05;33.47;;;22.00;;
52620;SDS011;38515;53.160;6.990;2023-02-18T07:11:31;36.22;;;21.85;;
52620;SDS011;38515;53.160;6.990;2023-02-18T07:13:57;32.03;;;19.23;;
52620;SDS011;38515;53.160;6.990;2023-02-18T07:16:23;26.85;;;18.48;;
52620;SDS011;38515;53.160;6.990;2023-02-18T07:18:49;30.58;;;19.63;;
52620;SDS011;38515;53.160;6.990;2023-02-18T07:21:15;24.88;;;16.85;;
52620;SDS011;38515;53.160;6.990;2023-02-18T07:23:41;26.17;;;18.70;;
52620;SDS011;38515;53.160;6.990;2023-02-18T07:26:08;27.70;;;18.48;;
52620;SDS011;38515;53.160;6.990;2023-02-18T07:28:35;24.40;;;17.30;;
52620;SDS011;38515;53.160;6.990;2023-02-18T07:31:02;21.67;;;16.15;;
52620;SDS011;38515;53.160;6.990;2023-02-18T07:33:28;22.80;;;18.27;;
52620;SDS011;38515;53.160;6.990;2023-02-18T07:35:55;28.83;;;19.88;;
52620;SDS011;38515;53.160;6.990;2023-02-18T07:38:22;27.35;;;20.15;;
52620;SDS011;38515;53.160;6.990;2023-02-18T07:40:49;30.35;;;20.38;;
52620;SDS011;38515;53.160;6.990;2023-02-18T07:43:15;30.80;;;22.42;;
52620;SDS011;38515;53.160;6.990;2023-02-18T07:45:41;34.13;;;22.55;;
52620;SDS011;38515;53.160;6.990;2023-02-18T07:48:07;35.45;;;23.90;;
52620;SDS011;38515;53.160;6.990;2023-02-18T07:50:33;31.27;;;21.58;;
52620;SDS011;38515;53.160;6.990;2023-02-18T07:53:02;35.90;;;22.13;;
52620;SDS011;38515;53.160;6.990;2023-02-18T07:55:29;27.60;;;20.25;;
52620;SDS011;38515;53.160;6.990;2023-02-18T07:58:18;66.13;;;62.63;;
52620;SDS011;38515;53.160;6.990;2023-02-18T08:00:46;28.73;;;19.33;;
52620;SDS011;38515;53.160;6.990;2023-02-18T08:03:14;22.23;;;16.95;;
52620;SDS011;38515;53.160;6.990;2023-02-18T08:05:46;25.20;;;16.52;;
52620;SDS011;38515;53.160;6.990;2023-02-18T08:08:17;24.33;;;17.02;;
52620;SDS011;38515;53.160;6.990;2023-02-18T08:10:45;25.58;;;16.77;;
52620;SDS011;38515;53.160;6.990;2023-02-18T08:13:43;23.48;;;16.23;;
52620;SDS011;38515;53.160;6.990;2023-02-18T08:16:09;21.98;;;15.77;;
52620;SDS011;38515;53.160;6.990;2023-02-18T08:18:35;24.10;;;17.25;;
52620;SDS011;38515;53.160;6.990;2023-02-18T08:21:04;22.02;;;14.82;;
52620;SDS011;38515;53.160;6.990;2023-02-18T08:23:30;21.83;;;14.98;;
52620;SDS011;38515;53.160;6.990;2023-02-18T08:25:56;21.75;;;14.80;;
52620;SDS011;38515;53.160;6.990;2023-02-18T08:28:22;21.40;;;14.50;;
52620;SDS011;38515;53.160;6.990;2023-02-18T08:30:53;23.92;;;14.25;;
52620;SDS011;38515;53.160;6.990;2023-02-18T08:33:19;21.88;;;12.98;;
52620;SDS011;38515;53.160;6.990;2023-02-18T08:35:46;19.15;;;13.68;;
52620;SDS011;38515;53.160;6.990;2023-02-18T08:38:20;16.70;;;13.00;;
52620;SDS011;38515;53.160;6.990;2023-02-18T08:40:47;20.13;;;13.43;;
52620;SDS011;38515;53.160;6.990;2023-02-18T08:43:14;19.15;;;13.55;;
52620;SDS011;38515;53.160;6.990;2023-02-18T08:45:41;16.77;;;11.65;;
52620;SDS011;38515;53.160;6.990;2023-02-18T08:48:08;22.33;;;12.75;;
52620;SDS011;38515;53.160;6.990;2023-02-18T08:50:37;19.80;;;12.32;;
52620;SDS011;38515;53.160;6.990;2023-02-18T08:53:03;16.05;;;11.25;;
52620;SDS011;38515;53.160;6.990;2023-02-18T08:55:30;17.38;;;9.85;;
52620;SDS011;38515;53.160;6.990;2023-02-18T08:57:57;23.15;;;11.23;;
52620;SDS011;38515;53.160;6.990;2023-02-18T09:00:23;19.48;;;10.07;;
52620;SDS011;38515;53.160;6.990;2023-02-18T09:02:49;17.15;;;9.10;;
52620;SDS011;38515;53.160;6.990;2023-02-18T09:05:15;21.42;;;10.48;;
52620;SDS011;38515;53.160;6.990;2023-02-18T09:07:41;13.30;;;9.60;;
52620;SDS011;38515;53.160;6.990;2023-02-18T09:10:08;17.45;;;11.65;;
52620;SDS011;38515;53.160;6.990;2023-02-18T09:12:34;15.43;;;10.13;;
52620;SDS011;38515;53.160;6.990;2023-02-18T09:15:01;12.93;;;8.15;;
52620;SDS011;38515;53.160;6.990;2023-02-18T09:17:27;13.48;;;10.27;;
52620;SDS011;38515;53.160;6.990;2023-02-18T09:19:53;13.10;;;8.55;;
52620;SDS011;38515;53.160;6.990;2023-02-18T09:22:19;16.08;;;8.57;;
52620;SDS011;38515;53.160;6.990;2023-02-18T09:24:45;15.35;;;8.57;;
52620;SDS011;38515;53.160;6.990;2023-02-18T09:27:16;13.00;;;8.23;;
52620;SDS011;38515;53.160;6.990;2023-02-18T09:29:42;16.30;;;8.18;;
52620;SDS011;38515;53.160;6.990;2023-02-18T09:32:08;16.73;;;9.82;;
52620;SDS011;38515;53.160;6.990;2023-02-18T09:34:35;11.45;;;6.95;;
52620;SDS011;38515;53.160;6.990;2023-02-18T09:37:02;12.32;;;7.30;;
52620;SDS011;38515;53.160;6.990;2023-02-18T09:39:28;11.52;;;6.70;;
52620;SDS011;38515;53.160;6.990;2023-02-18T09:41:56;10.18;;;6.63;;
52620;SDS011;38515;53.160;6.990;2023-02-18T09:44:28;11.60;;;6.85;;
52620;SDS011;38515;53.160;6.990;2023-02-18T09:47:00;11.52;;;6.90;;
52620;SDS011;38515;53.160;6.990;2023-02-18T09:49:31;8.90;;;5.30;;
52620;SDS011;38515;53.160;6.990;2023-02-18T09:52:09;12.30;;;6.18;;
52620;SDS011;38515;53.160;6.990;2023-02-18T09:54:41;11.88;;;5.82;;
52620;SDS011;38515;53.160;6.990;2023-02-18T09:57:36;9.43;;;6.10;;
52620;SDS011;38515;53.160;6.990;2023-02-18T10:00:06;17.73;;;6.10;;
52620;SDS011;38515;53.160;6.990;2023-02-18T10:03:06;7.88;;;5.65;;
52620;SDS011;38515;53.160;6.990;2023-02-18T10:05:39;7.80;;;4.65;;
52620;SDS011;38515;53.160;6.990;2023-02-18T10:08:22;8.38;;;5.40;;
52620;SDS011;38515;53.160;6.990;2023-02-18T10:10:56;11.52;;;5.90;;
52620;SDS011;38515;53.160;6.990;2023-02-18T10:13:33;11.52;;;6.03;;
52620;SDS011;38515;53.160;6.990;2023-02-18T10:15:59;7.20;;;4.88;;
52620;SDS011;38515;53.160;6.990;2023-02-18T10:18:30;13.05;;;5.25;;
52620;SDS011;38515;53.160;6.990;2023-02-18T10:23:37;9.35;;;5.13;;
52620;SDS011;38515;53.160;6.990;2023-02-18T10:26:06;15.88;;;7.95;;
52620;SDS011;38515;53.160;6.990;2023-02-18T10:28:39;12.10;;;5.32;;
52620;SDS011;38515;53.160;6.990;2023-02-18T10:31:06;14.80;;;5.97;;
52620;SDS011;38515;53.160;6.990;2023-02-18T10:39:00;14.35;;;5.53;;
52620;SDS011;38515;53.160;6.990;2023-02-18T10:41:37;13.23;;;6.10;;
52620;SDS011;38515;53.160;6.990;2023-02-18T10:44:12;10.93;;;5.85;;
52620;SDS011;38515;53.160;6.990;2023-02-18T10:52:44;9.68;;;5.32;;
52620;SDS011;38515;53.160;6.990;2023-02-18T10:55:14;21.17;;;6.38;;
52620;SDS011;38515;53.160;6.990;2023-02-18T10:57:50;11.52;;;4.90;;
52620;SDS011;38515;53.160;6.990;2023-02-18T11:00:19;12.70;;;5.07;;
52620;SDS011;38515;53.160;6.990;2023-02-18T11:03:01;11.98;;;5.30;;
52620;SDS011;38515;53.160;6.990;2023-02-18T11:05:38;8.20;;;4.70;;
52620;SDS011;38515;53.160;6.990;2023-02-18T11:08:09;12.88;;;4.60;;
52620;SDS011;38515;53.160;6.990;2023-02-18T11:10:40;10.45;;;5.25;;
52620;SDS011;38515;53.160;6.990;2023-02-18T11:13:08;12.20;;;4.70;;
52620;SDS011;38515;53.160;6.990;2023-02-18T11:15:37;13.07;;;6.40;;
52620;SDS011;38515;53.160;6.990;2023-02-18T11:18:31;16.92;;;6.38;;
52620;SDS011;38515;53.160;6.990;2023-02-18T11:26:24;12.05;;;4.68;;
52620;SDS011;38515;53.160;6.990;2023-02-18T11:29:06;11.32;;;5.15;;
52620;SDS011;38515;53.160;6.990;2023-02-18T11:31:43;14.52;;;5.32;;
52620;SDS011;38515;53.160;6.990;2023-02-18T11:34:15;11.70;;;4.78;;
52620;SDS011;38515;53.160;6.990;2023-02-18T11:36:47;12.48;;;5.47;;
52620;SDS011;38515;53.160;6.990;2023-02-18T11:41:58;9.43;;;5.03;;
52620;SDS011;38515;53.160;6.990;2023-02-18T11:47:05;14.23;;;4.45;;
52620;SDS011;38515;53.160;6.990;2023-02-18T11:49:38;12.15;;;4.43;;
52620;SDS011;38515;53.160;6.990;2023-02-18T11:55:14;8.50;;;4.22;;
52620;SDS011;38515;53.160;6.990;2023-02-18T11:57:43;12.23;;;6.07;;
52620;SDS011;38515;53.160;6.990;2023-02-18T12:06:05;14.13;;;4.90;;
52620;SDS011;38515;53.160;6.990;2023-02-18T12:09:04;13.13;;;5.28;;
52620;SDS011;38515;53.160;6.990;2023-02-18T12:11:41;8.15;;;4.78;;
52620;SDS011;38515;53.160;6.990;2023-02-18T12:14:17;14.05;;;5.18;;
52620;SDS011;38515;53.160;6.990;2023-02-18T12:16:50;10.65;;;5.10;;
52620;SDS011;38515;53.160;6.990;2023-02-18T12:24:53;13.68;;;4.93;;
52620;SDS011;38515;53.160;6.990;2023-02-18T12:28:02;7.00;;;4.55;;
52620;SDS011;38515;53.160;6.990;2023-02-18T12:30:40;9.10;;;5.03;;
52620;SDS011;38515;53.160;6.990;2023-02-18T12:36:32;9.85;;;5.15;;
52620;SDS011;38515;53.160;6.990;2023-02-18T12:39:55;11.25;;;4.95;;
52620;SDS011;38515;53.160;6.990;2023-02-18T12:54:11;13.95;;;4.40;;
52620;SDS011;38515;53.160;6.990;2023-02-18T13:02:37;10.95;;;4.53;;
52620;SDS011;38515;53.160;6.990;2023-02-18T13:05:37;15.52;;;4.47;;
52620;SDS011;38515;53.160;6.990;2023-02-18T13:11:07;13.05;;;4.90;;
52620;SDS011;38515;53.160;6.990;2023-02-18T13:16:53;13.07;;;4.50;;
52620;SDS011;38515;53.160;6.990;2023-02-18T13:19:26;17.25;;;5.00;;
52620;SDS011;38515;53.160;6.990;2023-02-18T13:22:04;14.10;;;4.10;;
52620;SDS011;38515;53.160;6.990;2023-02-18T13:24:35;11.95;;;3.97;;
52620;SDS011;38515;53.160;6.990;2023-02-18T13:27:07;7.82;;;4.10;;
52620;SDS011;38515;53.160;6.990;2023-02-18T13:29:44;17.45;;;4.13;;
52620;SDS011;38515;53.160;6.990;2023-02-18T13:32:38;15.88;;;4.15;;
52620;SDS011;38515;53.160;6.990;2023-02-18T13:35:20;13.75;;;5.00;;
52620;SDS011;38515;53.160;6.990;2023-02-18T13:40:44;16.90;;;4.18;;
52620;SDS011;38515;53.160;6.990;2023-02-18T13:46:04;12.40;;;5.20;;
52620;SDS011;38515;53.160;6.990;2023-02-18T13:51:09;11.75;;;3.33;;
52620;SDS011;38515;53.160;6.990;2023-02-18T13:53:38;8.68;;;4.10;;
52620;SDS011;38515;53.160;6.990;2023-02-18T13:56:10;10.38;;;3.60;;
52620;SDS011;38515;53.160;6.990;2023-02-18T13:58:50;9.50;;;3.63;;
52620;SDS011;38515;53.160;6.990;2023-02-18T14:01:24;12.02;;;4.00;;
52620;SDS011;38515;53.160;6.990;2023-02-18T14:04:50;8.88;;;3.75;;
52620;SDS011;38515;53.160;6.990;2023-02-18T14:10:04;6.88;;;3.58;;
52620;SDS011;38515;53.160;6.990;2023-02-18T14:20:47;10.07;;;3.78;;
52620;SDS011;38515;53.160;6.990;2023-02-18T14:25:42;12.13;;;4.30;;
52620;SDS011;38515;53.160;6.990;2023-02-18T14:31:16;10.13;;;4.07;;
52620;SDS011;38515;53.160;6.990;2023-02-18T14:39:44;14.52;;;4.47;;
52620;SDS011;38515;53.160;6.990;2023-02-18T14:48:40;10.25;;;4.25;;
52620;SDS011;38515;53.160;6.990;2023-02-18T14:51:18;11.57;;;4.25;;
52620;SDS011;38515;53.160;6.990;2023-02-18T14:53:48;14.20;;;4.53;;
52620;SDS011;38515;53.160;6.990;2023-02-18T14:56:15;17.52;;;5.78;;
52620;SDS011;38515;53.160;6.990;2023-02-18T14:58:45;10.10;;;5.03;;
52620;SDS011;38515;53.160;6.990;2023-02-18T15:01:31;13.40;;;5.13;;
52620;SDS011;38515;53.160;6.990;2023-02-18T15:04:05;12.98;;;4.55;;
52620;SDS011;38515;53.160;6.990;2023-02-18T15:06:32;11.57;;;4.47;;
52620;SDS011;38515;53.160;6.990;2023-02-18T15:11:51;16.40;;;4.95;;
52620;SDS011;38515;53.160;6.990;2023-02-18T15:14:36;14.27;;;5.32;;
52620;SDS011;38515;53.160;6.990;2023-02-18T15:17:05;14.48;;;4.93;;
52620;SDS011;38515;53.160;6.990;2023-02-18T15:19:38;14.52;;;4.95;;
52620;SDS011;38515;53.160;6.990;2023-02-18T15:22:14;12.23;;;4.70;;
52620;SDS011;38515;53.160;6.990;2023-02-18T15:24:43;25.15;;;6.22;;
52620;SDS011;38515;53.160;6.990;2023-02-18T15:27:13;8.35;;;4.88;;
52620;SDS011;38515;53.160;6.990;2023-02-18T15:29:41;15.70;;;5.18;;
52620;SDS011;38515;53.160;6.990;2023-02-18T15:32:15;17.05;;;6.05;;
52620;SDS011;38515;53.160;6.990;2023-02-18T15:34:56;15.65;;;5.18;;
52620;SDS011;38515;53.160;6.990;2023-02-18T15:37:26;14.35;;;4.90;;
52620;SDS011;38515;53.160;6.990;2023-02-18T15:39:52;18.98;;;5.95;;
52620;SDS011;38515;53.160;6.990;2023-02-18T15:42:29;22.25;;;5.97;;
52620;SDS011;38515;53.160;6.990;2023-02-18T15:47:58;16.17;;;5.55;;
52620;SDS011;38515;53.160;6.990;2023-02-18T15:50:29;15.05;;;5.70;;
52620;SDS011;38515;53.160;6.990;2023-02-18T15:53:10;13.02;;;5.15;;
52620;SDS011;38515;53.160;6.990;2023-02-18T15:55:41;17.42;;;6.82;;
52620;SDS011;38515;53.160;6.990;2023-02-18T15:58:17;13.98;;;4.82;;
52620;SDS011;38515;53.160;6.990;2023-02-18T16:01:03;21.93;;;5.57;;
52620;SDS011;38515;53.160;6.990;2023-02-18T16:03:32;15.75;;;5.13;;
52620;SDS011;38515;53.160;6.990;2023-02-18T16:06:24;15.90;;;5.53;;
52620;SDS011;38515;53.160;6.990;2023-02-18T16:11:34;20.20;;;6.28;;
52620;SDS011;38515;53.160;6.990;2023-02-18T16:14:04;15.82;;;5.70;;
52620;SDS011;38515;53.160;6.990;2023-02-18T16:16:34;16.08;;;6.45;;
52620;SDS011;38515;53.160;6.990;2023-02-18T16:19:03;17.70;;;6.53;;
52620;SDS011;38515;53.160;6.990;2023-02-18T16:23:58;16.63;;;6.07;;
52620;SDS011;38515;53.160;6.990;2023-02-18T16:26:40;15.23;;;6.32;;
52620;SDS011;38515;53.160;6.990;2023-02-18T16:29:13;21.80;;;5.80;;
52620;SDS011;38515;53.160;6.990;2023-02-18T16:31:58;15.85;;;5.13;;
52620;SDS011;38515;53.160;6.990;2023-02-18T16:34:24;22.25;;;6.28;;
52620;SDS011;38515;53.160;6.990;2023-02-18T16:36:51;21.83;;;6.40;;
52620;SDS011;38515;53.160;6.990;2023-02-18T16:39:36;14.30;;;5.00;;
52620;SDS011;38515;53.160;6.990;2023-02-18T16:42:04;23.98;;;6.20;;
52620;SDS011;38515;53.160;6.990;2023-02-18T16:44:39;20.67;;;5.38;;
52620;SDS011;38515;53.160;6.990;2023-02-18T16:47:06;19.35;;;7.15;;
52620;SDS011;38515;53.160;6.990;2023-02-18T16:49:39;19.67;;;5.75;;
52620;SDS011;38515;53.160;6.990;2023-02-18T16:52:07;16.67;;;5.60;;
52620;SDS011;38515;53.160;6.990;2023-02-18T16:54:33;15.13;;;6.07;;
52620;SDS011;38515;53.160;6.990;2023-02-18T16:56:59;18.73;;;5.90;;
52620;SDS011;38515;53.160;6.990;2023-02-18T16:59:25;24.35;;;5.95;;
52620;SDS011;38515;53.160;6.990;2023-02-18T17:01:51;14.27;;;5.32;;
52620;SDS011;38515;53.160;6.990;2023-02-18T17:04:17;16.02;;;6.47;;
52620;SDS011;38515;53.160;6.990;2023-02-18T17:06:44;21.38;;;7.93;;
52620;SDS011;38515;53.160;6.990;2023-02-18T17:09:17;15.35;;;5.93;;
52620;SDS011;38515;53.160;6.990;2023-02-18T17:11:46;28.58;;;7.63;;
52620;SDS011;38515;53.160;6.990;2023-02-18T17:14:16;15.35;;;6.15;;
52620;SDS011;38515;53.160;6.990;2023-02-18T17:16:43;21.85;;;7.95;;
52620;SDS011;38515;53.160;6.990;2023-02-18T17:19:10;22.98;;;7.55;;
52620;SDS011;38515;53.160;6.990;2023-02-18T17:21:36;17.33;;;7.30;;
52620;SDS011;38515;53.160;6.990;2023-02-18T17:24:02;21.13;;;6.53;;
52620;SDS011;38515;53.160;6.990;2023-02-18T17:26:28;20.20;;;6.13;;
52620;SDS011;38515;53.160;6.990;2023-02-18T17:28:55;21.10;;;7.43;;
52620;SDS011;38515;53.160;6.990;2023-02-18T17:31:25;15.45;;;5.90;;